Time;durP1;ratioP1;P1;durP2;ratioP2;P2;SDS_P1;SDS_P2;PMS_P1;PMS_P2;Temp;Humidity;BMP_temperature;BMP_pressure;BME280_temperature;BME280_humidity;BME280_pressure;Samples;Min_cycle;Max_cycle;Signal;HPM_P1;HPM_P2
2022/04/14 00:01:25;;;;;;;9.82;7.97;;;16.30;71.20;;;;;;5044742;28;20033;-75
2022/04/14 00:03:51;;;;;;;9.52;7.95;;;16.30;71.20;;;;;;5043340;28;20043;-76
2022/04/14 00:06:16;;;;;;;10.00;8.30;;;16.20;71.10;;;;;;5041589;28;20032;-75
2022/04/14 00:08:43;;;;;;;9.75;8.10;;;16.20;71.10;;;;;;5044186;28;20048;-77
2022/04/14 00:11:09;;;;;;;9.70;8.00;;;16.20;71.10;;;;;;5061520;28;20048;-75
2022/04/14 00:13:35;;;;;;;10.48;8.43;;;16.20;71.20;;;;;;5018907;28;20055;-75
2022/04/14 00:16:01;;;;;;;9.68;8.00;;;16.20;71.20;;;;;;5069213;28;20520;-75
2022/04/14 00:18:27;;;;;;;10.00;8.25;;;16.10;71.20;;;;;;5056512;28;20455;-75
2022/04/14 00:20:52;;;;;;;10.05;8.32;;;16.10;71.20;;;;;;5051873;28;20033;-76
2022/04/14 00:23:18;;;;;;;10.45;8.38;;;16.10;71.20;;;;;;5055217;28;20092;-75
2022/04/14 00:25:44;;;;;;;10.20;8.13;;;16.10;71.20;;;;;;5054459;28;20082;-75
2022/04/14 00:28:09;;;;;;;9.38;7.90;;;16.00;71.20;;;;;;5036533;28;20446;-74
2022/04/14 00:30:35;;;;;;;10.25;8.15;;;16.00;71.20;;;;;;5040167;28;20044;-75
2022/04/14 00:33:01;;;;;;;11.65;8.95;;;16.00;71.30;;;;;;5036189;28;20036;-74
2022/04/14 00:35:27;;;;;;;10.20;8.50;;;16.00;71.30;;;;;;5043217;28;20024;-74
2022/04/14 00:37:53;;;;;;;9.73;7.70;;;16.00;71.30;;;;;;5063506;28;20123;-76
2022/04/14 00:40:19;;;;;;;10.50;8.98;;;16.00;71.30;;;;;;5037336;28;20544;-78
2022/04/14 00:42:44;;;;;;;10.80;8.45;;;15.90;71.30;;;;;;5033044;28;20029;-76
2022/04/14 00:45:10;;;;;;;10.40;7.90;;;15.90;71.30;;;;;;5035035;28;20051;-75
2022/04/14 00:47:38;;;;;;;10.60;8.43;;;15.90;71.40;;;;;;5052640;28;20516;-75
2022/04/14 00:50:04;;;;;;;10.43;8.23;;;15.90;71.40;;;;;;5073251;28;20031;-76
2022/04/14 00:52:30;;;;;;;10.50;8.45;;;15.90;71.40;;;;;;5052049;28;20033;-75
2022/04/14 00:54:56;;;;;;;10.40;8.80;;;15.90;71.40;;;;;;5046151;28;20054;-75
2022/04/14 00:57:22;;;;;;;10.23;8.57;;;15.80;71.40;;;;;;5023279;28;20076;-75
2022/04/14 00:59:48;;;;;;;11.65;9.40;;;15.80;71.40;;;;;;5071361;28;20052;-76
2022/04/14 01:02:14;;;;;;;11.05;9.27;;;15.80;71.40;;;;;;5043645;28;20508;-75
2022/04/14 01:04:40;;;;;;;11.52;9.13;;;15.80;71.50;;;;;;5047783;28;20396;-75
2022/04/14 01:07:08;;;;;;;12.57;9.45;;;15.80;71.50;;;;;;5063485;28;20032;-76
2022/04/14 01:09:34;;;;;;;11.35;9.23;;;15.80;71.50;;;;;;5047557;28;20049;-75
2022/04/14 01:12:01;;;;;;;10.88;8.88;;;15.70;71.50;;;;;;5052802;28;20576;-75
2022/04/14 01:14:32;;;;;;;11.50;9.02;;;15.80;71.60;;;;;;5056165;28;20039;-75
2022/04/14 01:16:59;;;;;;;12.20;9.65;;;15.70;71.50;;;;;;5029365;28;20385;-75
2022/04/14 01:19:26;;;;;;;10.90;9.32;;;15.70;71.50;;;;;;5047894;28;20447;-76
2022/04/14 01:21:55;;;;;;;12.07;9.27;;;15.70;71.60;;;;;;5035092;28;20104;-75
2022/04/14 01:24:21;;;;;;;11.95;9.25;;;15.70;71.60;;;;;;5038831;28;20025;-76
2022/04/14 01:26:46;;;;;;;11.57;9.38;;;15.60;71.60;;;;;;5044700;28;20453;-74
2022/04/14 01:29:39;;;;;;;10.82;9.18;;;15.60;71.60;;;;;;5044025;28;20043;-75
2022/04/14 01:32:05;;;;;;;10.90;9.05;;;15.60;71.70;;;;;;5048176;28;20131;-75
2022/04/14 01:34:31;;;;;;;11.20;8.95;;;15.60;71.60;;;;;;5056285;28;20059;-75
2022/04/14 01:37:00;;;;;;;10.60;8.95;;;15.60;71.60;;;;;;5034234;28;20082;-75
2022/04/14 01:39:27;;;;;;;11.35;9.30;;;15.50;71.60;;;;;;5051562;28;20124;-75
2022/04/14 01:41:53;;;;;;;11.32;9.10;;;15.50;71.60;;;;;;5051183;28;20031;-75
2022/04/14 01:44:19;;;;;;;11.82;10.02;;;15.50;71.60;;;;;;5052835;28;20033;-76
2022/04/14 01:46:45;;;;;;;10.73;8.98;;;15.50;71.60;;;;;;5044563;28;20055;-75
2022/04/14 01:49:11;;;;;;;12.55;9.38;;;15.50;71.60;;;;;;5040240;28;20024;-76
2022/04/14 01:51:38;;;;;;;11.80;9.38;;;15.50;71.70;;;;;;5032812;28;20043;-75
2022/04/14 01:54:04;;;;;;;12.38;9.93;;;15.40;71.60;;;;;;5056850;28;20098;-75
2022/04/14 01:56:31;;;;;;;11.43;9.45;;;15.40;71.60;;;;;;5042718;28;20037;-76
2022/04/14 01:58:57;;;;;;;12.65;9.77;;;15.40;71.70;;;;;;5051217;28;20029;-75
2022/04/14 02:01:23;;;;;;;11.30;9.05;;;15.40;71.60;;;;;;5039371;28;20056;-75
2022/04/14 02:03:50;;;;;;;11.45;9.52;;;15.40;72.30;;;;;;5041365;28;20052;-75
2022/04/14 02:06:16;;;;;;;11.93;9.77;;;15.40;71.70;;;;;;5051729;28;20509;-76
2022/04/14 02:08:43;;;;;;;12.85;9.85;;;15.40;71.80;;;;;;5063685;28;20123;-75
2022/04/14 02:11:10;;;;;;;11.68;9.73;;;15.40;71.70;;;;;;5050698;28;20478;-75
2022/04/14 02:13:36;;;;;;;11.35;9.40;;;15.30;71.70;;;;;;5053578;28;20021;-75
2022/04/14 02:16:03;;;;;;;11.73;9.02;;;15.30;71.70;;;;;;5042614;28;20033;-75
2022/04/14 02:18:29;;;;;;;11.48;9.57;;;15.30;71.70;;;;;;5059261;28;20032;-75
2022/04/14 02:20:55;;;;;;;12.27;10.10;;;15.20;71.60;;;;;;5061570;28;20039;-76
2022/04/14 02:23:21;;;;;;;11.25;9.05;;;15.30;71.70;;;;;;5056610;28;20025;-76
2022/04/14 02:25:47;;;;;;;11.77;9.50;;;15.20;71.60;;;;;;5051328;28;20040;-75
2022/04/14 02:28:15;;;;;;;11.00;9.23;;;15.20;71.60;;;;;;5040950;28;20032;-75
2022/04/14 02:30:41;;;;;;;11.27;9.20;;;15.20;71.70;;;;;;5031825;28;20148;-76
2022/04/14 02:33:07;;;;;;;11.60;9.90;;;15.20;71.70;;;;;;5034584;28;20120;-76
2022/04/14 02:35:33;;;;;;;11.98;10.23;;;15.10;71.70;;;;;;5060430;28;20484;-75
2022/04/14 02:37:58;;;;;;;12.05;9.75;;;15.10;71.70;;;;;;5056944;28;20021;-74
2022/04/14 02:40:25;;;;;;;11.57;10.05;;;15.10;71.70;;;;;;5051143;28;20087;-75
2022/04/14 02:42:53;;;;;;;11.15;9.48;;;15.10;71.70;;;;;;5053575;28;20039;-75
2022/04/14 02:45:23;;;;;;;11.35;9.07;;;15.10;71.70;;;;;;5043677;28;20037;-75
2022/04/14 02:47:49;;;;;;;11.38;9.52;;;15.10;71.70;;;;;;5050910;28;20029;-75
2022/04/14 02:50:15;;;;;;;12.55;9.45;;;15.00;71.70;;;;;;5049871;28;20029;-74
2022/04/14 02:52:41;;;;;;;12.15;9.85;;;15.00;71.70;;;;;;5051924;28;20530;-76
2022/04/14 02:55:08;;;;;;;10.45;9.00;;;15.00;71.70;;;;;;5058277;28;20056;-76
2022/04/14 02:57:34;;;;;;;11.73;9.80;;;15.00;71.70;;;;;;5051648;28;20043;-75
2022/04/14 03:00:00;;;;;;;11.70;10.07;;;15.00;71.70;;;;;;5021893;28;20033;-75
2022/04/14 03:02:25;;;;;;;11.38;9.55;;;14.90;71.60;;;;;;5030804;28;20025;-75
2022/04/14 03:04:51;;;;;;;11.55;9.68;;;14.90;71.70;;;;;;5042672;28;20028;-75
2022/04/14 03:07:17;;;;;;;11.43;9.50;;;14.90;71.70;;;;;;5055978;28;20037;-76
2022/04/14 03:09:43;;;;;;;11.20;9.38;;;14.90;71.70;;;;;;5052365;28;20045;-75
2022/04/14 03:12:09;;;;;;;11.45;9.35;;;14.90;71.80;;;;;;5041925;28;20131;-75
2022/04/14 03:14:35;;;;;;;10.85;9.25;;;14.90;71.80;;;;;;5055897;28;20060;-75
2022/04/14 03:17:00;;;;;;;10.35;8.63;;;14.90;71.80;;;;;;5029168;28;20056;-76
2022/04/14 03:19:26;;;;;;;12.40;9.82;;;14.80;71.80;;;;;;5041679;28;20044;-75
2022/04/14 03:21:52;;;;;;;10.90;9.25;;;14.80;71.90;;;;;;5049841;28;20032;-76
2022/04/14 03:24:17;;;;;;;11.95;9.68;;;14.80;71.90;;;;;;5052331;28;20028;-75
2022/04/14 03:26:43;;;;;;;10.90;9.35;;;14.80;71.90;;;;;;5034707;28;20040;-75
2022/04/14 03:29:09;;;;;;;11.65;9.48;;;14.80;71.90;;;;;;5038173;28;20029;-75
2022/04/14 03:31:35;;;;;;;11.30;9.55;;;14.80;72.00;;;;;;5037240;28;20024;-75
2022/04/14 03:34:00;;;;;;;11.55;9.95;;;14.70;72.00;;;;;;5039760;28;20032;-75
2022/04/14 03:36:26;;;;;;;10.00;8.68;;;14.70;72.00;;;;;;5020632;28;20623;-75
2022/04/14 03:38:52;;;;;;;11.52;10.32;;;14.70;72.00;;;;;;5037881;28;20545;-76
2022/04/14 03:41:18;;;;;;;11.90;9.52;;;14.70;72.10;;;;;;5069463;28;20029;-75
2022/04/14 03:43:44;;;;;;;11.00;9.43;;;14.70;72.10;;;;;;5053986;28;20217;-75
2022/04/14 03:46:10;;;;;;;11.20;9.68;;;14.70;72.10;;;;;;5044465;28;20041;-75
2022/04/14 03:48:35;;;;;;;11.02;9.13;;;14.70;72.10;;;;;;5034812;28;20036;-75
2022/04/14 03:51:01;;;;;;;11.07;9.35;;;14.70;72.10;;;;;;5055179;28;20036;-75
2022/04/14 03:53:27;;;;;;;11.35;9.85;;;14.60;72.10;;;;;;5046363;28;20390;-75
2022/04/14 03:55:53;;;;;;;10.45;9.25;;;14.60;72.10;;;;;;5048887;28;20063;-75
2022/04/14 03:58:19;;;;;;;10.43;9.32;;;14.60;72.10;;;;;;5060849;28;20033;-75
2022/04/14 04:00:45;;;;;;;10.45;9.35;;;14.60;72.10;;;;;;5052568;28;20534;-75
2022/04/14 04:03:11;;;;;;;11.70;10.25;;;14.60;72.10;;;;;;5049321;28;20040;-74
2022/04/14 04:05:38;;;;;;;11.27;9.45;;;14.60;71.80;;;;;;5048604;28;20029;-76
2022/04/14 04:08:07;;;;;;;10.68;8.98;;;14.60;72.20;;;;;;5050493;28;20025;-76
2022/04/14 04:10:33;;;;;;;10.80;9.50;;;14.60;72.20;;;;;;5063876;28;20113;-76
2022/04/14 04:12:59;;;;;;;11.10;9.60;;;14.60;72.20;;;;;;5054896;28;20033;-75
2022/04/14 04:15:25;;;;;;;11.73;9.75;;;14.60;72.20;;;;;;5037384;28;20024;-75
2022/04/14 04:17:53;;;;;;;11.80;9.68;;;14.60;72.20;;;;;;5037214;28;20091;-74
2022/04/14 04:20:20;;;;;;;10.35;8.95;;;14.50;72.10;;;;;;5069488;28;20040;-76
2022/04/14 04:22:46;;;;;;;11.23;9.75;;;14.60;72.20;;;;;;5069498;28;20067;-77
2022/04/14 04:25:12;;;;;;;10.75;9.40;;;14.60;72.20;;;;;;5042512;28;20029;-76
2022/04/14 04:27:38;;;;;;;10.23;8.90;;;14.50;72.20;;;;;;5051967;28;20021;-77
2022/04/14 04:30:06;;;;;;;10.63;9.48;;;14.50;72.20;;;;;;5068984;28;20041;-76
2022/04/14 04:32:35;;;;;;;11.07;9.70;;;14.50;72.20;;;;;;5054292;28;20116;-76
2022/04/14 04:35:03;;;;;;;11.35;10.15;;;14.50;72.20;;;;;;5071786;28;20540;-76
2022/04/14 04:37:29;;;;;;;10.70;9.60;;;14.50;72.20;;;;;;5052119;28;20123;-76
2022/04/14 04:39:55;;;;;;;10.10;8.82;;;14.50;72.20;;;;;;5082647;28;20132;-76
2022/04/14 04:42:21;;;;;;;9.98;8.85;;;14.50;72.20;;;;;;5074986;28;20415;-75
2022/04/14 04:44:46;;;;;;;10.32;9.23;;;14.50;72.20;;;;;;5053112;28;20447;-75
2022/04/14 04:47:12;;;;;;;10.25;9.15;;;14.50;72.30;;;;;;5069147;28;20040;-76
2022/04/14 04:49:38;;;;;;;10.07;8.98;;;14.40;72.20;;;;;;5054650;28;20075;-78
2022/04/14 04:52:04;;;;;;;11.30;10.00;;;14.40;72.20;;;;;;5076082;28;20034;-75
2022/04/14 04:54:30;;;;;;;10.00;8.98;;;14.40;72.20;;;;;;5033346;28;20048;-75
2022/04/14 04:56:55;;;;;;;10.77;8.98;;;14.40;72.20;;;;;;5070357;28;20075;-77
2022/04/14 04:59:21;;;;;;;9.73;8.73;;;14.40;72.20;;;;;;5060314;28;20040;-75
2022/04/14 05:01:47;;;;;;;9.95;8.50;;;14.40;72.20;;;;;;5068729;28;20615;-74
2022/04/14 05:04:13;;;;;;;10.38;8.88;;;14.40;72.20;;;;;;5055836;28;20024;-75
2022/04/14 05:06:39;;;;;;;9.93;8.65;;;14.40;72.20;;;;;;5036665;28;20124;-75
2022/04/14 05:09:05;;;;;;;9.13;8.13;;;14.40;72.20;;;;;;5063265;28;20040;-75
2022/04/14 05:11:32;;;;;;;9.63;8.43;;;14.40;72.20;;;;;;5065049;28;20057;-74
2022/04/14 05:13:58;;;;;;;8.98;8.05;;;14.40;72.20;;;;;;5073563;28;20048;-74
2022/04/14 05:16:23;;;;;;;9.30;8.32;;;14.40;72.20;;;;;;5057935;28;20051;-74
2022/04/14 05:18:50;;;;;;;10.23;9.00;;;14.30;72.40;;;;;;5058023;28;20461;-73
2022/04/14 05:21:16;;;;;;;10.40;9.02;;;14.40;72.20;;;;;;5033586;28;20036;-73
2022/04/14 05:23:42;;;;;;;9.60;8.32;;;14.30;72.20;;;;;;5056832;28;20093;-75
2022/04/14 05:26:08;;;;;;;9.77;8.60;;;14.30;72.80;;;;;;5076673;28;20469;-74
2022/04/14 05:28:33;;;;;;;9.32;7.93;;;14.30;72.20;;;;;;5075150;28;20409;-73
2022/04/14 05:31:00;;;;;;;8.82;7.82;;;14.30;72.20;;;;;;5038020;28;20052;-74
2022/04/14 05:33:26;;;;;;;8.95;8.05;;;14.30;72.20;;;;;;5058039;28;20032;-74
2022/04/14 05:35:51;;;;;;;9.50;8.50;;;14.30;72.20;;;;;;5076252;28;20031;-73
2022/04/14 05:38:17;;;;;;;9.05;8.10;;;14.30;72.20;;;;;;5057085;28;20043;-74
2022/04/14 05:40:45;;;;;;;10.00;8.70;;;14.30;72.20;;;;;;5058073;28;20123;-73
2022/04/14 05:43:18;;;;;;;8.43;7.53;;;14.30;72.20;;;;;;5033807;28;20032;-72
2022/04/14 05:45:47;;;;;;;8.68;7.78;;;14.30;72.20;;;;;;5050216;28;20020;-74
2022/04/14 05:48:16;;;;;;;9.18;8.18;;;14.30;72.20;;;;;;5073856;28;20032;-74
2022/04/14 05:50:43;;;;;;;8.73;7.82;;;14.20;72.20;;;;;;5069648;28;20099;-77
2022/04/14 05:53:09;;;;;;;9.15;7.90;;;14.20;72.20;;;;;;5058214;28;20043;-75
2022/04/14 05:55:35;;;;;;;8.90;7.82;;;14.20;72.20;;;;;;5041236;28;20032;-73
2022/04/14 05:58:04;;;;;;;8.90;7.95;;;14.20;72.20;;;;;;5057816;28;20458;-73
2022/04/14 06:00:31;;;;;;;9.57;8.27;;;14.20;72.20;;;;;;5058302;28;20033;-73
2022/04/14 06:02:59;;;;;;;10.40;8.55;;;14.20;72.20;;;;;;5057143;28;20020;-74
2022/04/14 06:05:29;;;;;;;8.77;7.85;;;14.20;72.30;;;;;;5075889;28;20505;-73
2022/04/14 06:07:55;;;;;;;9.35;7.95;;;14.10;72.20;;;;;;5049425;28;20036;-74
2022/04/14 06:10:22;;;;;;;9.77;8.40;;;14.20;72.20;;;;;;5058878;28;20036;-72
2022/04/14 06:12:49;;;;;;;9.50;8.13;;;14.20;72.20;;;;;;5062069;28;20037;-73
2022/04/14 06:15:15;;;;;;;9.02;8.02;;;14.20;72.20;;;;;;5041741;28;20115;-75
2022/04/14 06:17:42;;;;;;;10.30;8.48;;;14.20;72.30;;;;;;5080219;28;20115;-73
2022/04/14 06:20:08;;;;;;;8.93;7.80;;;14.20;72.30;;;;;;5083644;28;20051;-73
2022/04/14 06:22:41;;;;;;;8.70;7.38;;;14.20;72.30;;;;;;5074009;28;20114;-73
2022/04/14 06:25:12;;;;;;;8.15;7.25;;;14.20;72.40;;;;;;5054792;28;20036;-72
2022/04/14 06:27:46;;;;;;;8.93;7.55;;;14.20;72.40;;;;;;5061507;28;20028;-73
2022/04/14 06:30:13;;;;;;;9.02;7.45;;;14.20;72.40;;;;;;5036236;28;20060;-76
2022/04/14 06:32:39;;;;;;;9.38;7.75;;;14.10;72.30;;;;;;5054976;28;20020;-74
2022/04/14 06:35:06;;;;;;;8.98;8.05;;;14.20;72.40;;;;;;5054259;28;20036;-74
2022/04/14 06:37:33;;;;;;;9.05;7.93;;;14.20;72.40;;;;;;5054624;28;20084;-73
2022/04/14 06:39:59;;;;;;;9.27;8.18;;;14.20;72.50;;;;;;5047151;28;20032;-73
2022/04/14 06:42:25;;;;;;;9.40;8.10;;;14.10;72.40;;;;;;5054174;28;20027;-73
2022/04/14 06:44:51;;;;;;;8.65;7.65;;;14.20;72.50;;;;;;5072023;28;20096;-73
2022/04/14 06:47:17;;;;;;;8.85;7.93;;;14.20;72.50;;;;;;5054278;28;20252;-74
2022/04/14 06:49:42;;;;;;;8.85;7.75;;;14.20;72.50;;;;;;5037296;28;20045;-74
2022/04/14 06:52:08;;;;;;;9.82;8.63;;;14.20;72.50;;;;;;5054243;28;20536;-74
2022/04/14 06:54:34;;;;;;;9.30;8.27;;;14.20;72.50;;;;;;5037611;28;20036;-74
2022/04/14 06:56:59;;;;;;;10.30;8.70;;;14.10;72.50;;;;;;5054024;28;20028;-74
2022/04/14 06:59:27;;;;;;;8.40;7.53;;;14.20;72.60;;;;;;5037609;28;20123;-75
2022/04/14 07:01:53;;;;;;;10.25;8.25;;;14.20;72.60;;;;;;5053235;28;20040;-74
2022/04/14 07:04:19;;;;;;;8.35;7.40;;;14.20;72.60;;;;;;5047217;28;20036;-73
2022/04/14 07:06:46;;;;;;;9.07;7.70;;;14.20;72.60;;;;;;5048010;28;20029;-74
2022/04/14 07:09:12;;;;;;;8.73;7.78;;;14.20;72.60;;;;;;5062242;28;20441;-74
2022/04/14 07:11:38;;;;;;;9.95;8.05;;;14.20;72.60;;;;;;5070631;28;20052;-75
2022/04/14 07:14:03;;;;;;;8.82;7.88;;;14.20;72.60;;;;;;5077649;28;20043;-74
2022/04/14 07:16:30;;;;;;;9.80;8.25;;;14.30;72.70;;;;;;5020461;28;20036;-74
2022/04/14 07:18:56;;;;;;;8.90;7.55;;;14.30;72.70;;;;;;5057198;28;20125;-73
2022/04/14 07:21:21;;;;;;;10.00;8.27;;;14.30;72.70;;;;;;5053483;28;20056;-75
2022/04/14 07:23:47;;;;;;;9.70;8.35;;;14.30;72.70;;;;;;5053825;28;20036;-74
2022/04/14 07:26:13;;;;;;;10.15;8.40;;;14.30;72.70;;;;;;5053078;28;20039;-74
2022/04/14 07:28:39;;;;;;;9.48;8.05;;;14.30;72.80;;;;;;5037950;28;20031;-73
2022/04/14 07:31:05;;;;;;;9.27;8.07;;;14.30;72.70;;;;;;5086609;28;20666;-74
2022/04/14 07:33:31;;;;;;;9.13;8.07;;;14.30;72.70;;;;;;5050465;28;20123;-75
2022/04/14 07:35:57;;;;;;;9.23;8.05;;;14.40;72.80;;;;;;5041620;28;20173;-74
2022/04/14 07:38:22;;;;;;;8.88;7.97;;;14.40;72.80;;;;;;5056658;28;20527;-74
2022/04/14 07:40:49;;;;;;;8.95;7.85;;;14.40;72.80;;;;;;5052868;28;20067;-73
2022/04/14 07:43:15;;;;;;;10.23;8.48;;;14.40;72.80;;;;;;5073581;28;20477;-75
2022/04/14 07:45:42;;;;;;;10.05;8.68;;;14.40;72.90;;;;;;5036238;28;20068;-74
2022/04/14 07:48:09;;;;;;;9.80;8.55;;;14.40;72.80;;;;;;5074662;28;20484;-74
2022/04/14 07:50:34;;;;;;;9.38;8.25;;;14.50;72.90;;;;;;5037932;28;20501;-74
2022/04/14 07:53:00;;;;;;;10.00;8.32;;;14.50;72.90;;;;;;5055780;28;20035;-74
2022/04/14 07:55:31;;;;;;;9.65;8.40;;;14.50;72.90;;;;;;5071449;28;20036;-74
2022/04/14 07:57:59;;;;;;;10.07;8.88;;;14.50;72.90;;;;;;5046171;28;20042;-74
2022/04/14 08:00:26;;;;;;;10.48;8.80;;;14.50;72.90;;;;;;5038297;28;20037;-73
2022/04/14 08:02:56;;;;;;;10.48;8.88;;;14.50;72.90;;;;;;5071331;28;20027;-75
2022/04/14 08:05:29;;;;;;;9.70;8.50;;;14.60;73.00;;;;;;5055245;28;20031;-74
2022/04/14 08:07:56;;;;;;;9.68;8.32;;;14.50;72.90;;;;;;5054761;28;20032;-74
2022/04/14 08:10:22;;;;;;;11.30;9.52;;;14.60;72.90;;;;;;5055443;28;20067;-74
2022/04/14 08:12:48;;;;;;;9.68;8.02;;;14.60;72.90;;;;;;5055466;28;20477;-74
2022/04/14 08:15:14;;;;;;;10.85;8.60;;;14.50;72.90;;;;;;5069736;28;20020;-75
2022/04/14 08:17:41;;;;;;;9.57;8.07;;;14.60;73.00;;;;;;5057145;28;20028;-74
2022/04/14 08:20:09;;;;;;;9.48;8.38;;;14.60;73.00;;;;;;5057649;28;20488;-74
2022/04/14 08:22:54;;;;;;;9.95;8.05;;;14.60;73.00;;;;;;5069057;28;20714;-75
2022/04/14 08:25:26;;;;;;;8.35;7.45;;;14.60;73.10;;;;;;5055703;28;20023;-76
2022/04/14 08:27:52;;;;;;;9.95;8.65;;;14.60;72.90;;;;;;5052354;28;20032;-75
2022/04/14 08:30:19;;;;;;;8.98;7.50;;;14.60;73.00;;;;;;5051950;28;20479;-75
2022/04/14 08:32:47;;;;;;;10.07;8.40;;;14.70;73.00;;;;;;5035561;28;20024;-75
2022/04/14 08:35:14;;;;;;;9.18;7.95;;;14.70;73.00;;;;;;5052032;28;20025;-76
2022/04/14 08:37:42;;;;;;;9.23;7.90;;;14.70;73.00;;;;;;5055309;28;20457;-76
2022/04/14 08:40:10;;;;;;;8.68;7.78;;;14.80;73.00;;;;;;5044508;28;20524;-75
2022/04/14 08:42:42;;;;;;;9.40;8.02;;;14.80;73.00;;;;;;5043712;28;20029;-74
2022/04/14 08:45:11;;;;;;;9.93;7.97;;;14.80;73.00;;;;;;5044967;28;20090;-73
2022/04/14 08:47:39;;;;;;;9.15;7.60;;;14.90;73.10;;;;;;5077515;28;20714;-76
2022/04/14 08:50:06;;;;;;;10.38;7.75;;;14.90;73.00;;;;;;5032636;28;20037;-77
2022/04/14 08:52:34;;;;;;;9.32;7.82;;;14.90;73.00;;;;;;5058071;28;20028;-76
2022/04/14 08:55:07;;;;;;;8.57;7.15;;;15.00;73.00;;;;;;5049671;28;20121;-76
2022/04/14 08:57:35;;;;;;;8.52;6.85;;;15.00;73.00;;;;;;5042383;28;20055;-77
2022/04/14 09:00:02;;;;;;;9.07;7.40;;;15.10;73.00;;;;;;5068539;28;20108;-76
2022/04/14 09:02:29;;;;;;;9.20;7.82;;;15.10;73.00;;;;;;5051566;28;20040;-75
2022/04/14 09:04:58;;;;;;;8.30;7.15;;;15.10;73.00;;;;;;5051812;28;20401;-76
2022/04/14 09:07:25;;;;;;;8.90;7.28;;;15.20;73.10;;;;;;5052683;28;20056;-75
2022/04/14 09:09:51;;;;;;;8.13;6.47;;;15.20;73.00;;;;;;5034908;28;20043;-75
2022/04/14 09:12:17;;;;;;;8.80;7.22;;;15.30;73.10;;;;;;5029135;28;20045;-75
2022/04/14 09:14:43;;;;;;;9.43;7.00;;;15.30;73.10;;;;;;5029007;28;20056;-76
2022/04/14 09:17:09;;;;;;;8.73;6.85;;;15.40;73.10;;;;;;5011961;28;20459;-75
2022/04/14 09:19:37;;;;;;;8.88;7.38;;;15.40;73.10;;;;;;5028280;28;20049;-75
2022/04/14 09:22:13;;;;;;;7.30;6.32;;;15.50;73.10;;;;;;5034424;28;20029;-75
2022/04/14 09:24:50;;;;;;;7.82;6.20;;;15.50;73.20;;;;;;5012040;28;20123;-75
2022/04/14 09:27:27;;;;;;;7.78;6.28;;;15.70;73.30;;;;;;5029663;28;20030;-75
2022/04/14 09:29:55;;;;;;;7.90;6.28;;;15.70;73.20;;;;;;5028468;28;20540;-74
2022/04/14 09:32:38;;;;;;;8.07;6.28;;;15.70;73.10;;;;;;5028215;28;20025;-75
2022/04/14 09:35:16;;;;;;;7.82;6.00;;;15.80;73.30;;;;;;5060897;28;20029;-75
2022/04/14 09:37:42;;;;;;;8.68;5.43;;;15.90;73.30;;;;;;5021252;28;20057;-76
2022/04/14 09:40:10;;;;;;;9.48;6.50;;;15.90;73.10;;;;;;5029193;28;20030;-76
2022/04/14 09:42:43;;;;;;;7.15;5.47;;;16.00;73.20;;;;;;5029550;28;20029;-76
2022/04/14 09:45:26;;;;;;;7.18;5.70;;;16.10;73.30;;;;;;5011784;28;20038;-76
2022/04/14 09:47:53;;;;;;;8.68;5.60;;;16.20;73.40;;;;;;5021259;28;20096;-75
2022/04/14 09:50:43;;;;;;;6.45;5.43;;;16.20;73.10;;;;;;5027697;28;20021;-76
2022/04/14 09:53:20;;;;;;;6.95;5.40;;;16.40;73.40;;;;;;5025005;28;20033;-78
2022/04/14 09:55:49;;;;;;;7.28;5.35;;;16.50;73.20;;;;;;5042700;28;20032;-75
2022/04/14 09:58:19;;;;;;;6.97;5.18;;;16.50;73.10;;;;;;5035871;28;20040;-76
2022/04/14 10:00:47;;;;;;;7.28;5.55;;;16.60;73.10;;;;;;5048403;28;20041;-75
2022/04/14 10:03:18;;;;;;;6.85;5.35;;;16.70;73.00;;;;;;5033766;28;20034;-75
2022/04/14 10:05:46;;;;;;;6.50;4.90;;;16.80;73.00;;;;;;5031887;28;20053;-75
2022/04/14 10:08:13;;;;;;;6.72;5.10;;;16.90;72.90;;;;;;5045387;28;20033;-74
2022/04/14 10:10:41;;;;;;;6.57;5.07;;;17.00;72.90;;;;;;5018495;28;20477;-74
2022/04/14 10:13:10;;;;;;;6.70;4.70;;;17.10;72.90;;;;;;5037549;28;20094;-75
2022/04/14 10:15:39;;;;;;;6.18;4.63;;;17.20;72.70;;;;;;5052795;28;20029;-73
2022/04/14 10:18:07;;;;;;;6.68;4.63;;;17.30;72.70;;;;;;5054515;28;20035;-75
2022/04/14 10:20:34;;;;;;;5.60;4.40;;;17.40;72.70;;;;;;5052058;28;20041;-74
2022/04/14 10:23:01;;;;;;;6.18;4.65;;;17.50;72.70;;;;;;5077570;28;20031;-73
2022/04/14 10:25:28;;;;;;;5.50;4.55;;;17.60;72.70;;;;;;5054414;28;20028;-74
2022/04/14 10:27:58;;;;;;;6.55;4.95;;;17.70;72.70;;;;;;5072831;28;20021;-75
2022/04/14 10:30:24;;;;;;;5.22;4.22;;;17.80;73.30;;;;;;5072564;28;20457;-74
2022/04/14 10:32:57;;;;;;;6.50;4.45;;;17.90;72.60;;;;;;5073058;28;20664;-76
2022/04/14 10:35:28;;;;;;;5.65;4.70;;;18.00;72.50;;;;;;5053029;28;20650;-77
2022/04/14 10:38:31;;;;;;;6.07;4.32;;;18.10;72.50;;;;;;5071811;28;20024;-74
2022/04/14 10:41:05;;;;;;;5.70;4.32;;;18.20;72.60;;;;;;5061912;28;20036;-76
2022/04/14 10:43:37;;;;;;;6.97;4.53;;;18.30;72.30;;;;;;5049766;28;20035;-76
2022/04/14 10:46:04;;;;;;;5.90;4.45;;;18.40;72.30;;;;;;5037594;28;20020;-74
2022/04/14 10:48:32;;;;;;;7.10;4.63;;;18.40;72.30;;;;;;5040118;28;20083;-74
2022/04/14 10:51:16;;;;;;;5.65;4.18;;;18.60;72.40;;;;;;5045789;28;20107;-74
2022/04/14 10:54:03;;;;;;;5.72;4.55;;;18.70;72.60;;;;;;5061440;28;20107;-74
2022/04/14 10:56:41;;;;;;;6.03;4.55;;;18.80;72.30;;;;;;5071769;28;20037;-74
2022/04/14 10:59:14;;;;;;;5.85;4.05;;;18.90;72.30;;;;;;5037224;28;20047;-76
2022/04/14 11:01:46;;;;;;;5.93;4.22;;;19.00;72.30;;;;;;5060347;28;20016;-75
2022/04/14 11:04:34;;;;;;;5.57;4.35;;;19.10;72.30;;;;;;5066442;28;20032;-76
2022/04/14 11:07:09;;;;;;;5.07;4.05;;;19.20;72.30;;;;;;5055218;28;20097;-75
2022/04/14 11:09:53;;;;;;;;;;;19.30;72.10;;;;;;5071410;28;20085;-75
2022/04/14 11:12:20;;;;;;;4.85;3.35;;;19.30;71.90;;;;;;5059517;28;19916;-75
2022/04/14 11:14:50;;;;;;;4.63;3.63;;;19.50;71.70;;;;;;5082830;28;20070;-75
2022/04/14 11:20:24;;;;;;;7.18;4.07;;;19.60;72.10;;;;;;5051569;28;20036;-75
2022/04/14 11:23:13;;;;;;;4.90;3.75;;;19.80;72.00;;;;;;5053195;28;20491;-75
2022/04/14 11:25:44;;;;;;;5.00;3.70;;;19.80;72.00;;;;;;5064392;28;20017;-74
2022/04/14 11:28:26;;;;;;;5.50;3.95;;;19.90;71.90;;;;;;5036237;28;20024;-75
2022/04/14 11:31:23;;;;;;;4.97;3.63;;;20.00;72.00;;;;;;5036663;28;20111;-74
2022/04/14 11:33:50;;;;;;;5.05;3.30;;;20.10;72.00;;;;;;5030969;28;20441;-75
2022/04/14 11:36:19;;;;;;;4.57;3.28;;;20.20;71.80;;;;;;5070263;28;20146;-75
2022/04/14 11:38:53;;;;;;;6.05;3.83;;;20.30;71.80;;;;;;5036680;28;20453;-74
2022/04/14 11:41:38;;;;;;;;;;;20.40;71.90;;;;;;5053165;28;20036;-75
2022/04/14 11:44:07;;;;;;;5.10;3.45;;;20.50;71.60;;;;;;5053232;28;19915;-75
2022/04/14 11:46:34;;;;;;;3.80;2.92;;;20.50;71.60;;;;;;5070247;28;20021;-74
2022/04/14 11:49:01;;;;;;;5.13;3.70;;;20.60;71.80;;;;;;5036413;28;20456;-75
2022/04/14 11:51:27;;;;;;;5.00;3.38;;;20.70;71.90;;;;;;5036282;28;20311;-75
2022/04/14 11:53:55;;;;;;;4.38;3.10;;;20.80;72.00;;;;;;5044606;28;20032;-74
2022/04/14 11:56:22;;;;;;;4.80;3.28;;;20.90;72.00;;;;;;5070277;28;20028;-74
2022/04/14 11:58:49;;;;;;;5.55;3.75;;;20.90;71.90;;;;;;5070448;28;20048;-74
2022/04/14 12:01:14;;;;;;;4.72;3.10;;;21.00;71.90;;;;;;5036368;28;20032;-75
2022/04/14 12:03:44;;;;;;;4.75;3.60;;;21.10;71.90;;;;;;5035802;28;20435;-74
2022/04/14 12:06:14;;;;;;;4.78;3.08;;;21.20;71.90;;;;;;5070170;28;20033;-74
2022/04/14 12:08:40;;;;;;;4.43;3.03;;;21.30;71.90;;;;;;5070277;28;20029;-74
2022/04/14 12:11:13;;;;;;;3.92;2.90;;;21.30;71.90;;;;;;5035477;28;20036;-75
2022/04/14 12:13:40;;;;;;;3.40;2.33;;;21.40;72.00;;;;;;5052472;28;20037;-74
2022/04/14 12:16:08;;;;;;;3.72;2.40;;;21.50;71.90;;;;;;5068974;28;20397;-75
2022/04/14 12:18:35;;;;;;;3.45;2.35;;;21.60;71.80;;;;;;5034328;28;20040;-75
2022/04/14 12:21:01;;;;;;;3.63;2.53;;;21.60;71.80;;;;;;5035337;28;20473;-76
2022/04/14 12:23:27;;;;;;;3.28;2.47;;;21.70;71.80;;;;;;5035499;28;20033;-75
2022/04/14 12:25:54;;;;;;;2.90;2.10;;;21.70;71.80;;;;;;5052224;28;20048;-75
2022/04/14 12:28:20;;;;;;;2.75;2.20;;;21.80;71.80;;;;;;5052273;28;20474;-75
2022/04/14 12:30:46;;;;;;;3.35;2.42;;;21.90;72.50;;;;;;5052137;28;20032;-75
2022/04/14 12:33:12;;;;;;;2.67;2.08;;;21.80;71.80;;;;;;5052017;28;20032;-77
2022/04/14 12:35:42;;;;;;;3.17;2.30;;;21.90;71.80;;;;;;5026945;28;20472;-75
2022/04/14 12:38:16;;;;;;;2.85;2.10;;;22.00;71.80;;;;;;5051926;28;20093;-75
2022/04/14 12:40:52;;;;;;;;;;;22.00;71.90;;;;;;5061890;28;20098;-75
2022/04/14 12:43:33;;;;;;;3.47;2.25;;;22.00;71.80;;;;;;5060123;28;19916;-75
2022/04/14 12:46:00;;;;;;;3.47;2.40;;;22.10;71.90;;;;;;5045330;28;20027;-75
2022/04/14 12:48:26;;;;;;;5.63;2.50;;;22.10;72.00;;;;;;5052015;28;20545;-76
2022/04/14 12:50:57;;;;;;;4.07;2.30;;;22.10;72.10;;;;;;5035227;28;20032;-74